Terminal Aerodrome Forecast
Issued by NWS Atlanta, GA

Home | Current Version | Previous Version | Text Only | Print | Product List | Glossary On
Versions: 1 2 3 4 5 6 7 8 9 10 11 12 13 14 15 16 17 18 19 20 21
155
FTUS42 KFFC 240348 AAC
TAFCSG
TAF AMD
KCSG 240348Z 2404/2424 23004KT P6SM VCSH SCT008 BKN050
      TEMPO 2404/2408 3SM TSRA OVC012CB
     FM240800 00000KT 4SM BR VCSH BKN015
     FM241500 VRB03KT P6SM VCSH BKN025
     FM241800 VRB03KT P6SM SHRA BKN035 PROB30 2418/2424 4SM TSRA
      OVC025CB=

USA.gov is the U.S. government's official web portal to all federal, state and local government web resources and services.